createdAt,value
2023-01-18T00:00:26.687Z,9
2023-01-18T00:01:26.514Z,9
2023-01-18T00:02:26.535Z,9
2023-01-18T00:03:26.522Z,9
2023-01-18T00:04:26.513Z,9
2023-01-18T00:05:26.528Z,9
2023-01-18T00:06:26.525Z,9
2023-01-18T00:07:26.558Z,9
2023-01-18T00:08:27.536Z,9
2023-01-18T00:09:26.494Z,9
2023-01-18T00:10:26.573Z,9
2023-01-18T00:11:26.533Z,9
2023-01-18T00:12:26.529Z,9
2023-01-18T00:13:26.577Z,9
2023-01-18T00:14:26.524Z,9
2023-01-18T00:15:26.524Z,9.5
2023-01-18T00:16:26.557Z,9.5
2023-01-18T00:17:26.580Z,9.5
2023-01-18T00:18:26.543Z,9.5
2023-01-18T00:19:26.605Z,9.5
2023-01-18T00:20:26.551Z,9.5
2023-01-18T00:21:26.636Z,9.5
2023-01-18T00:22:26.529Z,9.5
2023-01-18T00:23:26.535Z,9.5
2023-01-18T00:24:26.561Z,9.5
2023-01-18T00:25:26.540Z,9.5
2023-01-18T00:26:26.534Z,9.6
2023-01-18T00:27:26.526Z,9.6
2023-01-18T00:28:26.537Z,9.6
2023-01-18T00:29:26.539Z,9.6
2023-01-18T00:30:26.592Z,9.6
2023-01-18T00:31:26.646Z,9.6
2023-01-18T00:32:26.537Z,9.5
2023-01-18T00:33:26.591Z,9.5
2023-01-18T00:34:26.522Z,9.5
2023-01-18T00:35:26.695Z,9.5
2023-01-18T00:36:26.555Z,9.5
2023-01-18T00:37:26.566Z,9.5
2023-01-18T00:38:26.538Z,9.5
2023-01-18T00:39:26.577Z,9.5
2023-01-18T00:40:26.593Z,9.5
2023-01-18T00:41:26.561Z,9.5
2023-01-18T00:42:26.562Z,9.5
2023-01-18T00:43:26.555Z,9.5
2023-01-18T00:44:26.553Z,9.5
2023-01-18T00:45:26.675Z,9.5
2023-01-18T00:46:26.566Z,9.5
2023-01-18T00:47:26.569Z,9.5
2023-01-18T00:48:26.571Z,9.5
2023-01-18T00:49:26.577Z,9.5
2023-01-18T00:50:26.557Z,9.5
2023-01-18T00:51:26.551Z,9.5
2023-01-18T00:52:26.560Z,9.5
2023-01-18T00:53:26.587Z,9.5
2023-01-18T00:54:26.560Z,9.5
2023-01-18T00:55:26.607Z,9.5
2023-01-18T00:56:26.587Z,9.3
2023-01-18T00:57:26.542Z,9.3
2023-01-18T00:58:26.628Z,9.3
2023-01-18T00:59:26.576Z,9.3
2023-01-18T01:00:26.574Z,9.3
2023-01-18T01:01:26.659Z,9.3
2023-01-18T01:02:26.663Z,9.3
2023-01-18T01:03:26.592Z,9.3
2023-01-18T01:04:26.598Z,9.3
2023-01-18T01:05:26.594Z,9.3
2023-01-18T01:06:26.631Z,9.3
2023-01-18T01:07:26.626Z,9.1
2023-01-18T01:08:26.577Z,9.1
2023-01-18T01:09:26.593Z,9.1
2023-01-18T01:10:26.585Z,9.1
2023-01-18T01:11:26.583Z,9.1
2023-01-18T01:12:26.619Z,9.1
2023-01-18T01:13:26.606Z,9.1
2023-01-18T01:14:26.584Z,9.1
2023-01-18T01:15:26.653Z,9.1
2023-01-18T01:16:26.664Z,9.1
2023-01-18T01:17:26.581Z,9.1
2023-01-18T01:18:26.593Z,9.1
2023-01-18T01:19:26.629Z,9.1
2023-01-18T01:20:26.579Z,8.7
2023-01-18T01:21:26.594Z,8.7
2023-01-18T01:22:26.623Z,8.7
2023-01-18T01:23:26.596Z,8.7
2023-01-18T01:24:26.586Z,8.7
2023-01-18T01:25:26.638Z,8.7
2023-01-18T01:26:26.579Z,8.7
2023-01-18T01:27:26.628Z,8.7
2023-01-18T01:28:26.576Z,8.7
2023-01-18T01:29:26.608Z,8.7
2023-01-18T01:30:26.663Z,8.7
2023-01-18T01:31:26.589Z,8.7
2023-01-18T01:32:26.591Z,8.7
2023-01-18T01:33:26.646Z,8.7
2023-01-18T01:34:26.616Z,8.7
2023-01-18T01:35:26.621Z,8.7
2023-01-18T01:36:26.616Z,8.7
2023-01-18T01:37:26.586Z,8.7
2023-01-18T01:38:26.664Z,8.7
2023-01-18T01:39:26.619Z,8.7
2023-01-18T01:40:26.634Z,8.7
2023-01-18T01:41:26.661Z,8.7
2023-01-18T01:42:26.607Z,8.7
2023-01-18T01:43:26.637Z,8.7
2023-01-18T01:44:26.652Z,8.7
2023-01-18T01:45:26.636Z,8.2
2023-01-18T01:46:26.649Z,8.2
2023-01-18T01:47:26.671Z,8.2
2023-01-18T01:48:26.647Z,8.2
2023-01-18T01:49:26.671Z,8.2
2023-01-18T01:50:26.605Z,8.2
2023-01-18T01:51:26.683Z,8.2
2023-01-18T01:52:26.648Z,8.2
2023-01-18T01:53:26.659Z,8.2
2023-01-18T01:54:26.684Z,8.2
2023-01-18T01:55:26.651Z,8.2
2023-01-18T01:56:26.653Z,8.2
2023-01-18T01:57:26.646Z,8.2
2023-01-18T01:58:26.742Z,8.2
2023-01-18T01:59:26.771Z,8.2
2023-01-18T02:00:26.668Z,8.2
2023-01-18T02:01:26.733Z,8.2
2023-01-18T02:02:26.810Z,8.2
2023-01-18T02:03:26.669Z,8.2
2023-01-18T02:04:26.681Z,8.2
2023-01-18T02:05:26.726Z,8.2
2023-01-18T02:06:26.755Z,8.2
2023-01-18T02:07:26.708Z,8.2
2023-01-18T02:08:26.712Z,8.2
2023-01-18T02:09:26.670Z,8.2
2023-01-18T02:10:26.704Z,8.2
2023-01-18T02:11:26.689Z,8.2
2023-01-18T02:12:26.712Z,8.2
2023-01-18T02:13:26.902Z,8.2
2023-01-18T02:14:26.713Z,8.2
2023-01-18T02:15:26.705Z,8.2
2023-01-18T02:16:26.807Z,8.2
2023-01-18T02:17:26.675Z,8.2
2023-01-18T02:18:26.713Z,8
2023-01-18T02:19:26.691Z,8
2023-01-18T02:20:26.682Z,8
2023-01-18T02:21:26.701Z,8
2023-01-18T02:22:26.705Z,8
2023-01-18T02:23:26.686Z,8
2023-01-18T02:24:26.705Z,8
2023-01-18T02:25:26.710Z,8
2023-01-18T02:26:26.707Z,8
2023-01-18T02:27:26.731Z,8
2023-01-18T02:28:26.713Z,8
2023-01-18T02:29:26.729Z,8
2023-01-18T02:30:26.705Z,8
2023-01-18T02:31:26.724Z,8
2023-01-18T02:32:26.705Z,8
2023-01-18T02:33:26.726Z,8
2023-01-18T02:34:26.722Z,8
2023-01-18T02:35:26.734Z,8
2023-01-18T02:36:26.715Z,8
2023-01-18T02:37:26.731Z,8
2023-01-18T02:38:26.720Z,8
2023-01-18T02:39:26.721Z,8
2023-01-18T02:40:26.714Z,8
2023-01-18T02:41:26.716Z,8
2023-01-18T02:42:26.706Z,8
2023-01-18T02:43:26.757Z,7.8
2023-01-18T02:44:26.726Z,7.8
2023-01-18T02:45:26.712Z,7.8
2023-01-18T02:46:26.771Z,7.8
2023-01-18T02:47:26.780Z,7.8
2023-01-18T02:48:26.727Z,7.8
2023-01-18T02:49:26.721Z,7.8
2023-01-18T02:50:26.762Z,7.8
2023-01-18T02:51:26.734Z,7.8
2023-01-18T02:52:26.724Z,7.7
2023-01-18T02:53:26.761Z,7.7
2023-01-18T02:54:26.731Z,7.7
2023-01-18T02:55:26.739Z,7.7
2023-01-18T02:56:26.728Z,7.7
2023-01-18T02:57:26.735Z,7.7
2023-01-18T02:58:26.708Z,7.7
2023-01-18T02:59:26.730Z,7.7
2023-01-18T03:00:26.747Z,7.7
2023-01-18T03:01:27.248Z,7.7
2023-01-18T03:02:26.766Z,7.7
2023-01-18T03:03:26.727Z,7.7
2023-01-18T03:04:26.752Z,7.7
2023-01-18T03:05:26.788Z,7.7
2023-01-18T03:06:26.752Z,7.7
2023-01-18T03:07:26.739Z,7.7
2023-01-18T03:08:26.761Z,7.7
2023-01-18T03:09:26.736Z,7.7
2023-01-18T03:10:26.745Z,7.7
2023-01-18T03:11:26.746Z,7.7
2023-01-18T03:12:26.737Z,7.2
2023-01-18T03:13:26.755Z,7.2
2023-01-18T03:14:26.736Z,7.2
2023-01-18T03:15:26.753Z,7.2
2023-01-18T03:16:26.796Z,7.2
2023-01-18T03:17:26.732Z,7.2
2023-01-18T03:18:26.736Z,7.1
2023-01-18T03:19:26.768Z,7.1
2023-01-18T03:20:26.779Z,7.1
2023-01-18T03:21:26.768Z,7.1
2023-01-18T03:22:26.823Z,7.1
2023-01-18T03:23:26.806Z,7.1
2023-01-18T03:24:26.771Z,7.1
2023-01-18T03:25:26.883Z,7.1
2023-01-18T03:26:26.794Z,7.1
2023-01-18T03:27:26.789Z,7.1
2023-01-18T03:28:26.772Z,7.1
2023-01-18T03:29:26.758Z,7.1
2023-01-18T03:30:26.758Z,7.1
2023-01-18T03:31:26.754Z,7.1
2023-01-18T03:32:26.773Z,7.1
2023-01-18T03:33:26.852Z,7.1
2023-01-18T03:34:26.761Z,7.1
2023-01-18T03:35:26.758Z,7.1
2023-01-18T03:36:26.768Z,7.1
2023-01-18T03:37:27.115Z,6.8
2023-01-18T03:38:26.754Z,6.8
2023-01-18T03:39:26.787Z,6.8
2023-01-18T03:40:26.777Z,6.8
2023-01-18T03:41:26.787Z,6.8
2023-01-18T03:42:26.769Z,6.8
2023-01-18T03:43:26.776Z,6.8
2023-01-18T03:44:26.827Z,6.8
2023-01-18T03:45:26.826Z,6.8
2023-01-18T03:46:26.838Z,6.8
2023-01-18T03:47:26.774Z,6.8
2023-01-18T03:48:26.832Z,6.8
2023-01-18T03:49:26.777Z,6.8
2023-01-18T03:50:26.835Z,6.8
2023-01-18T03:51:26.794Z,6.8
2023-01-18T03:52:26.772Z,6.8
2023-01-18T03:53:26.825Z,6.8
2023-01-18T03:54:26.771Z,6.8
2023-01-18T03:55:26.768Z,6.8
2023-01-18T03:56:26.773Z,6.8
2023-01-18T03:57:26.786Z,6.8
2023-01-18T03:58:26.778Z,6.8
2023-01-18T03:59:26.776Z,6.8
2023-01-18T04:00:26.795Z,6.8
2023-01-18T04:01:27.032Z,6.8
2023-01-18T04:02:26.924Z,6.8
2023-01-18T04:03:26.901Z,6.8
2023-01-18T04:04:26.814Z,6.8
2023-01-18T04:05:26.835Z,6.8
2023-01-18T04:06:26.822Z,6.8
2023-01-18T04:07:26.812Z,6.8
2023-01-18T04:08:26.806Z,6.8
2023-01-18T04:09:26.828Z,7
2023-01-18T04:10:26.829Z,7
2023-01-18T04:11:26.819Z,7
2023-01-18T04:12:26.842Z,7
2023-01-18T04:13:26.839Z,7
2023-01-18T04:14:26.837Z,7
2023-01-18T04:15:26.848Z,7
2023-01-18T04:16:26.817Z,7
2023-01-18T04:17:26.848Z,7
2023-01-18T04:18:26.818Z,7
2023-01-18T04:19:26.820Z,7
2023-01-18T04:20:26.847Z,7
2023-01-18T04:21:26.840Z,7
2023-01-18T04:22:26.832Z,7
2023-01-18T04:23:26.845Z,7
2023-01-18T04:24:26.913Z,7
2023-01-18T04:25:26.803Z,7
2023-01-18T04:26:26.865Z,7
2023-01-18T04:27:26.805Z,7
2023-01-18T04:28:26.846Z,7
2023-01-18T04:29:26.858Z,7
2023-01-18T04:30:26.847Z,7
2023-01-18T04:31:26.942Z,7
2023-01-18T04:32:26.819Z,7
2023-01-18T04:33:26.973Z,7
2023-01-18T04:34:26.851Z,7
2023-01-18T04:35:26.860Z,7
2023-01-18T04:36:26.855Z,7
2023-01-18T04:37:26.865Z,7.6
2023-01-18T04:38:26.842Z,7.6
2023-01-18T04:39:26.854Z,7.6
2023-01-18T04:40:27.416Z,7.6
2023-01-18T04:41:26.840Z,7.6
2023-01-18T04:42:26.849Z,7.6
2023-01-18T04:43:26.850Z,7.6
2023-01-18T04:44:26.824Z,7.6
2023-01-18T04:45:26.854Z,7.6
2023-01-18T04:46:26.901Z,7.6
2023-01-18T04:47:26.905Z,7.6
2023-01-18T04:48:26.862Z,7.6
2023-01-18T04:49:26.889Z,7.6
2023-01-18T04:50:26.850Z,7.6
2023-01-18T04:51:26.846Z,7.6
2023-01-18T04:52:26.995Z,7.6
2023-01-18T04:53:26.895Z,7.6
2023-01-18T04:54:26.852Z,7.6
2023-01-18T04:55:26.841Z,7.6
2023-01-18T04:56:26.861Z,8.1
2023-01-18T04:57:26.876Z,8.1
2023-01-18T04:58:26.870Z,8.1
2023-01-18T04:59:26.864Z,8.1
2023-01-18T05:00:26.962Z,8.1
2023-01-18T05:01:27.013Z,8.1
2023-01-18T05:02:26.917Z,8.1
2023-01-18T05:03:26.865Z,8.1
2023-01-18T05:04:26.867Z,8.1
2023-01-18T05:05:26.934Z,8.1
2023-01-18T05:06:26.862Z,8.1
2023-01-18T05:07:26.887Z,8.6
2023-01-18T05:08:26.864Z,8.6
2023-01-18T05:09:26.863Z,8.6
2023-01-18T05:10:26.901Z,8.6
2023-01-18T05:11:26.955Z,8.6
2023-01-18T05:12:26.887Z,8.6
2023-01-18T05:13:26.912Z,8.6
2023-01-18T05:14:26.892Z,8.6
2023-01-18T05:15:26.881Z,8.6
2023-01-18T05:16:26.999Z,8.6
2023-01-18T05:17:26.907Z,8.6
2023-01-18T05:18:26.880Z,8.6
2023-01-18T05:19:26.861Z,9.1
2023-01-18T05:20:26.920Z,9.1
2023-01-18T05:21:26.864Z,9.1
2023-01-18T05:22:26.907Z,9.1
2023-01-18T05:23:26.913Z,9.1
2023-01-18T05:24:29.631Z,9.1
2023-01-18T05:25:26.918Z,9.1
2023-01-18T05:26:26.932Z,9.1
2023-01-18T05:27:26.890Z,9.1
2023-01-18T05:28:26.892Z,9.1
2023-01-18T05:29:26.912Z,9.1
2023-01-18T05:30:26.930Z,9.1
2023-01-18T05:31:26.917Z,9.1
2023-01-18T05:32:26.894Z,9.1
2023-01-18T05:33:26.908Z,9.5
2023-01-18T05:34:26.916Z,9.5
2023-01-18T05:35:26.862Z,9.5
2023-01-18T05:36:26.906Z,9.5
2023-01-18T05:37:26.946Z,9.6
2023-01-18T05:38:26.871Z,9.6
2023-01-18T05:39:26.891Z,9.6
2023-01-18T05:40:26.895Z,9.6
2023-01-18T05:41:26.901Z,9.6
2023-01-18T05:42:26.903Z,9.7
2023-01-18T05:43:26.957Z,9.7
2023-01-18T05:44:27.024Z,9.7
2023-01-18T05:45:26.915Z,9.7
2023-01-18T05:46:26.881Z,9.7
2023-01-18T05:47:26.871Z,9.7
2023-01-18T05:48:26.907Z,9.6
2023-01-18T05:49:26.938Z,9.6
2023-01-18T05:50:26.903Z,9.6
2023-01-18T05:51:26.883Z,9.5
2023-01-18T05:52:26.909Z,9.5
2023-01-18T05:53:26.913Z,9.2
2023-01-18T05:54:26.926Z,9.2
2023-01-18T05:55:26.939Z,9.2
2023-01-18T05:56:26.898Z,8.7
2023-01-18T05:57:26.888Z,8.7
2023-01-18T05:58:26.923Z,8.7
2023-01-18T05:59:26.928Z,8.7
2023-01-18T06:00:26.980Z,8.2
2023-01-18T06:01:27.039Z,8.2
2023-01-18T06:02:26.914Z,8.2
2023-01-18T06:03:26.924Z,8.2
2023-01-18T06:04:26.967Z,8.2
2023-01-18T06:05:26.920Z,8.2
2023-01-18T06:06:26.930Z,8.2
2023-01-18T06:07:26.923Z,7.6
2023-01-18T06:08:26.915Z,7.6
2023-01-18T06:09:26.911Z,7.6
2023-01-18T06:10:26.929Z,7.6
2023-01-18T06:11:26.923Z,7.6
2023-01-18T06:12:26.949Z,7.6
2023-01-18T06:13:26.959Z,7.6
2023-01-18T06:14:26.916Z,7.6
2023-01-18T06:15:26.944Z,7.6
2023-01-18T06:16:26.980Z,7.6
2023-01-18T06:17:26.938Z,7.6
2023-01-18T06:18:26.942Z,7.6
2023-01-18T06:19:26.938Z,7.3
2023-01-18T06:20:26.935Z,7.3
2023-01-18T06:21:26.928Z,7.3
2023-01-18T06:22:26.940Z,7.3
2023-01-18T06:23:26.941Z,7.3
2023-01-18T06:24:26.961Z,7.3
2023-01-18T06:25:26.931Z,7.3
2023-01-18T06:26:26.957Z,7.3
2023-01-18T06:27:26.940Z,7.3
2023-01-18T06:28:29.121Z,7.3
2023-01-18T06:29:26.933Z,7.3
2023-01-18T06:30:26.951Z,7.3
2023-01-18T06:31:26.985Z,7.3
2023-01-18T06:32:26.941Z,7.3
2023-01-18T06:33:26.941Z,7.3
2023-01-18T06:34:28.974Z,7.3
2023-01-18T06:35:26.999Z,7.3
2023-01-18T06:36:26.959Z,7.3
2023-01-18T06:37:26.922Z,7.1
2023-01-18T06:38:26.930Z,7.1
2023-01-18T06:39:27.019Z,7.1
2023-01-18T06:40:26.928Z,7.1
2023-01-18T06:41:26.980Z,7.1
2023-01-18T06:42:26.942Z,7.1
2023-01-18T06:43:26.957Z,7.1
2023-01-18T06:44:26.954Z,7.1
2023-01-18T06:45:26.942Z,7
2023-01-18T06:46:26.922Z,7
2023-01-18T06:47:26.966Z,7
2023-01-18T06:48:26.950Z,7
2023-01-18T06:49:27.315Z,7
2023-01-18T06:50:26.954Z,7
2023-01-18T06:51:26.939Z,7
2023-01-18T06:52:26.937Z,7
2023-01-18T06:53:26.983Z,7
2023-01-18T06:54:26.974Z,7
2023-01-18T06:55:26.957Z,7
2023-01-18T06:56:27.953Z,7
2023-01-18T06:57:26.961Z,7
2023-01-18T06:58:26.989Z,7
2023-01-18T06:59:26.963Z,7
2023-01-18T07:00:26.967Z,7
2023-01-18T07:01:27.091Z,7
2023-01-18T07:02:26.962Z,7
2023-01-18T07:03:26.964Z,6.9
2023-01-18T07:04:27.051Z,6.9
2023-01-18T07:05:26.974Z,6.9
2023-01-18T07:06:26.990Z,6.9
2023-01-18T07:07:26.965Z,6.9
2023-01-18T07:08:27.128Z,6.9
2023-01-18T07:09:26.981Z,6.9
2023-01-18T07:10:26.984Z,6.9
2023-01-18T07:11:26.994Z,6.9
2023-01-18T07:12:26.966Z,6.9
2023-01-18T07:13:27.014Z,6.9
2023-01-18T07:14:26.986Z,6.9
2023-01-18T07:15:27.032Z,6.9
2023-01-18T07:16:27.044Z,6.9
2023-01-18T07:17:26.990Z,6.9
2023-01-18T07:18:27.040Z,6.9
2023-01-18T07:19:26.987Z,6.9
2023-01-18T07:20:27.025Z,6.9
2023-01-18T07:21:26.973Z,7
2023-01-18T07:22:26.997Z,7
2023-01-18T07:23:26.986Z,7
2023-01-18T07:24:26.986Z,7
2023-01-18T07:25:27.003Z,7
2023-01-18T07:26:27.005Z,7
2023-01-18T07:27:27.138Z,7
2023-01-18T07:28:26.955Z,7
2023-01-18T07:29:27.006Z,7
2023-01-18T07:30:27.015Z,7
2023-01-18T07:31:26.995Z,7
2023-01-18T07:32:26.998Z,7
2023-01-18T07:33:26.989Z,7
2023-01-18T07:34:27.003Z,7
2023-01-18T07:35:26.982Z,7
2023-01-18T07:36:27.002Z,7
2023-01-18T07:37:27.032Z,7
2023-01-18T07:38:26.992Z,7
2023-01-18T07:39:27.005Z,7
2023-01-18T07:40:27.025Z,7
2023-01-18T07:41:27.075Z,6.9
2023-01-18T07:42:26.991Z,6.9
2023-01-18T07:43:27.132Z,6.9
2023-01-18T07:44:27.014Z,6.9
2023-01-18T07:45:26.999Z,6.9
2023-01-18T07:46:27.000Z,6.9
2023-01-18T07:47:27.070Z,6.9
2023-01-18T07:48:27.011Z,6.9
2023-01-18T07:49:27.053Z,6.9
2023-01-18T07:50:27.024Z,6.9
2023-01-18T07:51:27.005Z,6.9
2023-01-18T07:52:27.025Z,6.9
2023-01-18T07:53:27.017Z,7.2
2023-01-18T07:54:27.034Z,7.2
2023-01-18T07:55:27.059Z,7.2
2023-01-18T07:56:27.037Z,7.2
2023-01-18T07:57:27.066Z,7.1
2023-01-18T07:58:27.054Z,7.1
2023-01-18T07:59:27.011Z,7.1
2023-01-18T08:00:27.085Z,7.1
2023-01-18T08:01:27.161Z,7.1
2023-01-18T08:02:27.036Z,7.1
2023-01-18T08:03:27.051Z,7.1
2023-01-18T08:04:27.031Z,7.1
2023-01-18T08:05:27.076Z,7.1
2023-01-18T08:06:27.030Z,7.3
2023-01-18T08:07:27.034Z,7.3
2023-01-18T08:08:27.024Z,7.3
2023-01-18T08:09:27.088Z,7.3
2023-01-18T08:10:27.056Z,7.4
2023-01-18T08:11:27.044Z,7.4
2023-01-18T08:12:27.036Z,7.4
2023-01-18T08:13:27.054Z,7.4
2023-01-18T08:14:27.149Z,7.4
2023-01-18T08:15:27.013Z,7.4
2023-01-18T08:16:27.079Z,7.4
2023-01-18T08:17:27.048Z,7.4
2023-01-18T08:18:27.045Z,7.4
2023-01-18T08:19:27.019Z,7.4
2023-01-18T08:20:27.069Z,7.4
2023-01-18T08:21:27.081Z,7.4
2023-01-18T08:22:27.093Z,7.4
2023-01-18T08:23:27.068Z,7.4
2023-01-18T08:24:28.077Z,7.4
2023-01-18T08:25:27.048Z,7.4
2023-01-18T08:26:27.044Z,7.4
2023-01-18T08:27:27.368Z,7.4
2023-01-18T08:28:27.078Z,7.4
2023-01-18T08:29:27.053Z,7.4
2023-01-18T08:30:27.143Z,7.4
2023-01-18T08:31:27.088Z,7.5
2023-01-18T08:32:27.041Z,7.5
2023-01-18T08:33:27.049Z,7.5
2023-01-18T08:34:27.046Z,7.5
2023-01-18T08:35:27.042Z,7.5
2023-01-18T08:36:27.130Z,7.6
2023-01-18T08:37:27.091Z,7.6
2023-01-18T08:38:27.061Z,7.6
2023-01-18T08:39:27.054Z,7.6
2023-01-18T08:40:27.134Z,7.6
2023-01-18T08:41:27.123Z,7.6
2023-01-18T08:42:27.096Z,7.6
2023-01-18T08:43:27.074Z,7.6
2023-01-18T08:44:27.120Z,7.6
2023-01-18T08:45:27.055Z,7.6
2023-01-18T08:46:27.155Z,7.6
2023-01-18T08:47:27.046Z,7.6
2023-01-18T08:48:27.082Z,7.6
2023-01-18T08:49:27.088Z,7.6
2023-01-18T08:50:27.078Z,7.7
2023-01-18T08:51:27.126Z,7.7
2023-01-18T08:52:27.101Z,7.7
2023-01-18T08:53:27.127Z,7.7
2023-01-18T08:54:27.056Z,7.7
2023-01-18T08:55:27.063Z,7.7
2023-01-18T08:56:27.095Z,7.7
2023-01-18T08:57:27.113Z,7.7
2023-01-18T08:58:27.092Z,7.7
2023-01-18T08:59:27.189Z,7.7
2023-01-18T09:00:27.131Z,7.7
2023-01-18T09:01:27.266Z,7.7
2023-01-18T09:02:27.088Z,7.7
2023-01-18T09:03:27.140Z,7.7
2023-01-18T09:04:27.094Z,7.7
2023-01-18T09:05:27.224Z,7.7
2023-01-18T09:06:27.101Z,7.7
2023-01-18T09:07:27.133Z,7.5
2023-01-18T09:08:27.112Z,7.5
2023-01-18T09:09:27.106Z,7.5
2023-01-18T09:10:27.105Z,7.5
2023-01-18T09:11:27.064Z,7.5
2023-01-18T09:12:27.092Z,7.5
2023-01-18T09:13:27.091Z,7.5
2023-01-18T09:14:27.135Z,7.5
2023-01-18T09:15:27.075Z,7.5
2023-01-18T09:16:27.302Z,7.5
2023-01-18T09:17:27.075Z,7.5
2023-01-18T09:18:27.076Z,7.5
2023-01-18T09:19:27.106Z,7.5
2023-01-18T09:20:27.112Z,7.5
2023-01-18T09:21:27.112Z,7.5
2023-01-18T09:22:27.104Z,7.7
2023-01-18T09:23:27.108Z,7.7
2023-01-18T09:24:27.191Z,7.7
2023-01-18T09:25:27.139Z,7.7
2023-01-18T09:26:27.094Z,7.7
2023-01-18T09:27:27.123Z,7.7
2023-01-18T09:28:27.074Z,7.7
2023-01-18T09:29:27.114Z,7.7
2023-01-18T09:30:27.090Z,7.7
2023-01-18T09:31:27.164Z,7.7
2023-01-18T09:32:27.121Z,7.7
2023-01-18T09:33:36.938Z,7.7
2023-01-18T09:34:27.136Z,7.7
2023-01-18T09:35:27.135Z,7.7
2023-01-18T09:36:27.151Z,7.7
2023-01-18T09:37:27.122Z,7.7
2023-01-18T09:38:27.126Z,7.7
2023-01-18T09:39:27.106Z,7.9
2023-01-18T09:40:27.143Z,7.9
2023-01-18T09:41:27.158Z,7.9
2023-01-18T09:42:27.093Z,7.9
2023-01-18T09:43:27.116Z,7.9
2023-01-18T09:44:27.135Z,7.9
2023-01-18T09:45:27.110Z,7.9
2023-01-18T09:46:27.134Z,7.9
2023-01-18T09:47:27.301Z,7.9
2023-01-18T09:48:27.101Z,7.9
2023-01-18T09:49:27.140Z,8.2
2023-01-18T09:50:27.122Z,8.2
2023-01-18T09:51:27.131Z,8.2
2023-01-18T09:52:27.143Z,8.2
2023-01-18T09:53:27.170Z,8.2
2023-01-18T09:54:27.196Z,8.2
2023-01-18T09:55:27.130Z,8.2
2023-01-18T09:56:27.113Z,8.2
2023-01-18T09:57:27.126Z,8.4
2023-01-18T09:58:27.135Z,8.4
2023-01-18T09:59:27.175Z,8.4
2023-01-18T10:00:27.134Z,8.4
2023-01-18T10:01:27.228Z,8.4
2023-01-18T10:02:27.188Z,8.4
2023-01-18T10:03:27.144Z,8.4
2023-01-18T10:04:27.124Z,8.4
2023-01-18T10:05:27.151Z,8.4
2023-01-18T10:06:27.119Z,8.4
2023-01-18T10:07:27.133Z,8.4
2023-01-18T10:08:27.286Z,8.4
2023-01-18T10:09:27.153Z,8.4
2023-01-18T10:10:27.204Z,8.4
2023-01-18T10:11:27.199Z,8.4
2023-01-18T10:12:27.137Z,8.4
2023-01-18T10:13:27.219Z,8.4
2023-01-18T10:14:27.182Z,8.4
2023-01-18T10:15:27.136Z,8.4
2023-01-18T10:16:27.212Z,8.4
2023-01-18T10:17:27.154Z,8.4
2023-01-18T10:18:27.172Z,8.4
2023-01-18T10:19:27.178Z,8.4
2023-01-18T10:20:27.224Z,8.4
2023-01-18T10:21:27.149Z,8.4
2023-01-18T10:22:27.160Z,8.4
2023-01-18T10:23:29.206Z,8.4
2023-01-18T10:24:27.154Z,8.4
2023-01-18T10:25:27.190Z,8.4
2023-01-18T10:26:27.161Z,9
2023-01-18T10:27:27.141Z,9
2023-01-18T10:28:27.164Z,9
2023-01-18T10:29:27.165Z,9
2023-01-18T10:30:27.143Z,9
2023-01-18T10:31:27.290Z,9
2023-01-18T10:32:27.146Z,9
2023-01-18T10:33:27.156Z,9
2023-01-18T10:34:27.153Z,9
2023-01-18T10:35:27.156Z,9
2023-01-18T10:36:27.165Z,9
2023-01-18T10:37:27.188Z,9
2023-01-18T10:38:27.154Z,9
2023-01-18T10:39:27.155Z,9
2023-01-18T10:40:27.147Z,9
2023-01-18T10:41:27.166Z,9
2023-01-18T10:42:27.210Z,9.2
2023-01-18T10:43:27.208Z,9.3
2023-01-18T10:44:27.143Z,9.3
2023-01-18T10:45:27.156Z,9.3
2023-01-18T10:46:27.140Z,9.3
2023-01-18T10:47:27.160Z,9.3
2023-01-18T10:48:27.153Z,9.3
2023-01-18T10:49:27.206Z,9.3
2023-01-18T10:50:27.148Z,9.3
2023-01-18T10:51:27.151Z,9.3
2023-01-18T10:52:27.181Z,9.3
2023-01-18T10:53:27.207Z,9.3
2023-01-18T10:54:27.207Z,9.3
2023-01-18T10:55:27.164Z,9.3
2023-01-18T10:56:27.195Z,9.3
2023-01-18T10:57:27.203Z,9.3
2023-01-18T10:58:27.251Z,9.6
2023-01-18T10:59:27.297Z,9.6
2023-01-18T11:00:27.237Z,9.6
2023-01-18T11:01:27.323Z,9.6
2023-01-18T11:02:27.245Z,9.6
2023-01-18T11:03:27.201Z,9.6
2023-01-18T11:04:27.177Z,9.6
2023-01-18T11:05:27.209Z,9.6
2023-01-18T11:06:27.208Z,9.6
2023-01-18T11:07:27.289Z,9.6
2023-01-18T11:08:27.193Z,9.6
2023-01-18T11:09:27.198Z,9.6
2023-01-18T11:10:27.243Z,9.6
2023-01-18T11:11:27.200Z,9.6
2023-01-18T11:12:27.245Z,9.6
2023-01-18T11:13:27.230Z,9.6
2023-01-18T11:14:27.211Z,9.6
2023-01-18T11:15:27.188Z,9.6
2023-01-18T11:16:27.254Z,9.6
2023-01-18T11:17:27.191Z,9.6
2023-01-18T11:18:27.242Z,9.6
2023-01-18T11:19:27.199Z,10.1
2023-01-18T11:20:27.246Z,10.1
2023-01-18T11:21:27.203Z,10.1
2023-01-18T11:22:27.201Z,10.1
2023-01-18T11:23:27.239Z,10.1
2023-01-18T11:24:27.196Z,10.1
2023-01-18T11:25:27.209Z,10.1
2023-01-18T11:26:27.201Z,10.1
2023-01-18T11:27:27.206Z,10.1
2023-01-18T11:28:27.204Z,10.1
2023-01-18T11:29:28.688Z,10.1
2023-01-18T11:30:27.201Z,10.1
2023-01-18T11:31:27.235Z,10.1
2023-01-18T11:32:27.213Z,10.1
2023-01-18T11:33:27.224Z,10.1
2023-01-18T11:34:27.221Z,10.1
2023-01-18T11:35:27.232Z,10.1
2023-01-18T11:36:27.202Z,10.1
2023-01-18T11:37:27.216Z,10.1
2023-01-18T11:38:27.217Z,10.1
2023-01-18T11:39:27.246Z,10.1
2023-01-18T11:40:27.241Z,10.1
2023-01-18T11:41:27.196Z,10.1
2023-01-18T11:42:27.218Z,10.5
2023-01-18T11:43:27.202Z,10.5
2023-01-18T11:44:27.253Z,10.5
2023-01-18T11:45:27.276Z,10.5
2023-01-18T11:46:27.231Z,10.5
2023-01-18T11:47:27.221Z,10.6
2023-01-18T11:48:27.268Z,10.6
2023-01-18T11:49:27.220Z,10.6
2023-01-18T11:50:27.254Z,10.6
2023-01-18T11:51:27.207Z,10.6
2023-01-18T11:52:27.245Z,10.6
2023-01-18T11:53:27.236Z,10.6
2023-01-18T11:54:27.227Z,10.6
2023-01-18T11:55:27.255Z,10.6
2023-01-18T11:56:27.221Z,10.6
2023-01-18T11:57:27.246Z,10.6
2023-01-18T11:58:27.239Z,10.6
2023-01-18T11:59:27.223Z,10.6
2023-01-18T12:00:27.249Z,10.6
2023-01-18T12:01:27.236Z,10.6
2023-01-18T12:02:27.274Z,10.6
2023-01-18T12:03:27.332Z,10.6
2023-01-18T12:04:27.209Z,10.9
2023-01-18T12:05:27.217Z,10.9
2023-01-18T12:06:27.265Z,10.9
2023-01-18T12:07:27.212Z,10.9
2023-01-18T12:08:27.266Z,10.9
2023-01-18T12:09:27.219Z,10.9
2023-01-18T12:10:27.243Z,10.9
2023-01-18T12:11:27.245Z,10.9
2023-01-18T12:12:27.268Z,10.9
2023-01-18T12:13:27.219Z,10.9
2023-01-18T12:14:27.276Z,10.9
2023-01-18T12:15:27.262Z,11.2
2023-01-18T12:16:27.239Z,11.2
2023-01-18T12:17:27.219Z,11.2
2023-01-18T12:18:27.264Z,11.2
2023-01-18T12:19:27.225Z,11.2
2023-01-18T12:20:27.278Z,11.2
2023-01-18T12:21:27.257Z,11.2
2023-01-18T12:22:27.271Z,11.3
2023-01-18T12:23:27.283Z,11.3
2023-01-18T12:24:27.225Z,11.3
2023-01-18T12:25:27.225Z,11.3
2023-01-18T12:26:27.284Z,11.3
2023-01-18T12:27:27.265Z,11.3
2023-01-18T12:28:27.251Z,11.3
2023-01-18T12:29:27.246Z,11.3
2023-01-18T12:30:27.299Z,11.3
2023-01-18T12:31:27.347Z,11.3
2023-01-18T12:32:27.276Z,11.3
2023-01-18T12:33:42.251Z,11.3
2023-01-18T12:34:27.260Z,11.3
2023-01-18T12:35:27.238Z,11.3
2023-01-18T12:36:27.237Z,11.3
2023-01-18T12:37:27.294Z,11.3
2023-01-18T12:38:27.233Z,11.3
2023-01-18T12:39:27.225Z,11.3
2023-01-18T12:40:27.301Z,11.3
2023-01-18T12:41:27.263Z,11.6
2023-01-18T12:42:27.233Z,11.6
2023-01-18T12:43:27.306Z,11.6
2023-01-18T12:44:27.231Z,11.6
2023-01-18T12:45:27.253Z,11.6
2023-01-18T12:46:27.342Z,11.6
2023-01-18T12:47:27.232Z,11.6
2023-01-18T12:48:27.269Z,11.6
2023-01-18T12:49:27.249Z,11.6
2023-01-18T12:50:27.239Z,11.6
2023-01-18T12:51:27.260Z,11.6
2023-01-18T12:52:27.253Z,11.6
2023-01-18T12:53:27.258Z,11.6
2023-01-18T12:54:27.309Z,11.6
2023-01-18T12:55:27.277Z,11.6
2023-01-18T12:56:27.239Z,11.6
2023-01-18T12:57:27.234Z,11.6
2023-01-18T12:58:28.262Z,11.6
2023-01-18T12:59:27.248Z,11.6
2023-01-18T13:00:27.268Z,11.6
2023-01-18T13:01:27.438Z,11.6
2023-01-18T13:02:27.320Z,11.6
2023-01-18T13:03:27.241Z,11.6
2023-01-18T13:04:27.242Z,11.6
2023-01-18T13:05:27.301Z,11.6
2023-01-18T13:06:27.261Z,11.6
2023-01-18T13:07:27.258Z,11.6
2023-01-18T13:08:27.242Z,11.6
2023-01-18T13:09:27.316Z,11.6
2023-01-18T13:10:27.274Z,11.6
2023-01-18T13:11:27.355Z,11.6
2023-01-18T13:12:27.262Z,11.6
2023-01-18T13:13:27.272Z,11.6
2023-01-18T13:14:27.266Z,11.6
2023-01-18T13:15:27.284Z,11.6
2023-01-18T13:16:27.238Z,11.6
2023-01-18T13:17:27.311Z,11.6
2023-01-18T13:18:27.265Z,11.6
2023-01-18T13:19:27.249Z,11.6
2023-01-18T13:20:27.275Z,11.6
2023-01-18T13:21:27.365Z,11.6
2023-01-18T13:22:27.273Z,11.5
2023-01-18T13:23:27.265Z,11.5
2023-01-18T13:24:27.272Z,11.5
2023-01-18T13:25:27.283Z,11.5
2023-01-18T13:26:27.299Z,11.5
2023-01-18T13:27:27.272Z,11.5
2023-01-18T13:28:27.274Z,11.5
2023-01-18T13:29:27.256Z,11.5
2023-01-18T13:30:27.288Z,11.5
2023-01-18T13:31:27.362Z,11.5
2023-01-18T13:32:27.331Z,11.5
2023-01-18T13:33:27.316Z,11.2
2023-01-18T13:34:27.296Z,11.2
2023-01-18T13:35:27.272Z,11.2
2023-01-18T13:36:27.337Z,11.2
2023-01-18T13:37:27.322Z,11.1
2023-01-18T13:38:40.104Z,11.1
2023-01-18T13:39:27.297Z,11.1
2023-01-18T13:40:27.290Z,11.1
2023-01-18T13:41:27.294Z,11.1
2023-01-18T13:42:27.325Z,11.1
2023-01-18T13:43:27.352Z,11.1
2023-01-18T13:44:27.334Z,11.1
2023-01-18T13:45:27.283Z,11.1
2023-01-18T13:46:27.425Z,11.1
2023-01-18T13:47:27.295Z,11.1
2023-01-18T13:48:27.294Z,11.1
2023-01-18T13:49:37.112Z,11.1